Agnew, Nebraska
Current Conditions -  °F | °C
As of 9:54 AM on Friday 31 Oct 2014 (Local Time) from KLNK Reporting Station
Clear Clear  
Wind Chill: 22°   Ceiling: Unl
Heat Index: 32°   Visibility: 10mi
Dew Point: 20°   Wind: 15mph
Humidity: 61%   Direction: 30°NNE
Pressure: 30.6"   Gusts: NA
Location:  40.9964°N, 96.8004°W
Report Text: KLNK 311454Z 03013KT 10SM CLR 00/M07 A3060 RMK AO2 SLP370 T00001067 53014
Loading
Personal Weather Stations






























Interactive Weather Map
Tropical Storm Tracking
New forecast layout! Learn more

10-Day Weather Forecast

Advertisements
Track Severe Weather on mobile